EWG745 UDYZ-EBBR
Flight info
| Callsign | EWG745 |
|---|---|
| Flight time | N/A |
| Altitude | 28000 |
| Route | INDUR B374 ALVAR/N0447F340 UB374 ERZ UL746 INB/N0446F360 UL746 ODERO DCT OPT DCT SOKRU DCT BEGLA DCT DEXIT DCT EXITI DCT TEKTU DCT TESGA DCT UMUPU T880 BATTY |
| Aircraft | A320/M-SDE3FGHIRWY/LB1 |
Departure
| Time | N/A |
|---|---|
| Airport | Zvartnots International Airport (UDYZ) |
Arrival
| Time | 2026-05-04 16:55 |
|---|---|
| Airport | Brussels Airport (EBBR) |
| Time | Latitude | Longitude | Altitude | Speed | Heading |
|---|---|---|---|---|---|
| 2026-05-04 16:34 | 50.61274 | 6.16212 | 33524 ft | 420 kts | 276° |
| 2026-05-04 16:34 | 50.61817 | 6.11744 | 33273 ft | 421 kts | 276° |
| 2026-05-04 16:35 | 50.63403 | 5.98293 | 32533 ft | 422 kts | 275° |
| 2026-05-04 16:35 | 50.65106 | 5.84866 | 31245 ft | 435 kts | 283° |
| 2026-05-04 16:36 | 50.66314 | 5.80429 | 30335 ft | 446 kts | 292° |
| 2026-05-04 16:36 | 50.69161 | 5.71859 | 29098 ft | 437 kts | 291° |
| 2026-05-04 16:37 | 50.71820 | 5.63583 | 27858 ft | 431 kts | 291° |
| 2026-05-04 16:37 | 50.73155 | 5.59372 | 27238 ft | 428 kts | 291° |
| 2026-05-04 16:37 | 50.75797 | 5.51037 | 26023 ft | 421 kts | 292° |
| 2026-05-04 16:38 | 50.78407 | 5.42827 | 24821 ft | 415 kts | 292° |
| 2026-05-04 16:39 | 50.82143 | 5.31050 | 23160 ft | 404 kts | 293° |
| 2026-05-04 16:39 | 50.84611 | 5.23225 | 22150 ft | 396 kts | 293° |
| 2026-05-04 16:40 | 50.86736 | 5.16362 | 21317 ft | 387 kts | 289° |
| 2026-05-04 16:40 | 50.87907 | 5.08298 | 20789 ft | 379 kts | 271° |
| 2026-05-04 16:41 | 50.88298 | 4.99927 | 19542 ft | 379 kts | 271° |
| 2026-05-04 16:41 | 50.88760 | 4.88911 | 18296 ft | 369 kts | 271° |
| 2026-05-04 16:42 | 50.89288 | 4.77016 | 16910 ft | 362 kts | 272° |
| 2026-05-04 16:43 | 50.89573 | 4.70386 | 16124 ft | 359 kts | 272° |
| 2026-05-04 16:43 | 50.89891 | 4.62532 | 15184 ft | 356 kts | 272° |
| 2026-05-04 16:43 | 50.90045 | 4.58699 | 14717 ft | 354 kts | 272° |
| 2026-05-04 16:44 | 50.90441 | 4.44312 | 12847 ft | 350 kts | 270° |
| 2026-05-04 16:45 | 50.90509 | 4.36623 | 11786 ft | 347 kts | 270° |
| 2026-05-04 16:46 | 50.90619 | 4.25586 | 10455 ft | 339 kts | 269° |
| 2026-05-04 16:46 | 50.89659 | 4.20038 | 10162 ft | 297 kts | 234° |
| 2026-05-04 16:47 | 50.86680 | 4.16642 | 9716 ft | 284 kts | 194° |
| 2026-05-04 16:47 | 50.82763 | 4.16975 | 9116 ft | 288 kts | 166° |
| 2026-05-04 16:48 | 50.77004 | 4.19271 | 8024 ft | 282 kts | 166° |
| 2026-05-04 16:48 | 50.75104 | 4.20024 | 7654 ft | 281 kts | 166° |
| 2026-05-04 16:49 | 50.71632 | 4.21386 | 7224 ft | 266 kts | 165° |
| 2026-05-04 16:49 | 50.69196 | 4.24479 | 6944 ft | 244 kts | 110° |
| 2026-05-04 16:50 | 50.69487 | 4.29759 | 6367 ft | 248 kts | 76° |
| 2026-05-04 16:50 | 50.70344 | 4.35115 | 5531 ft | 249 kts | 77° |
| 2026-05-04 16:51 | 50.71218 | 4.40278 | 4394 ft | 238 kts | 65° |
| 2026-05-04 16:51 | 50.72054 | 4.41956 | 3873 ft | 236 kts | 37° |
| 2026-05-04 16:51 | 50.75040 | 4.43424 | 2993 ft | 216 kts | 14° |
| 2026-05-04 16:52 | 50.77877 | 4.44700 | 2391 ft | 207 kts | 15° |
| 2026-05-04 16:52 | 50.79269 | 4.45300 | 2110 ft | 206 kts | 14° |
| 2026-05-04 16:53 | 50.81942 | 4.46394 | 1582 ft | 187 kts | 13° |
| 2026-05-04 16:53 | 50.85390 | 4.47796 | 899 ft | 158 kts | 13° |
| 2026-05-04 16:54 | 50.86433 | 4.48222 | 684 ft | 153 kts | 13° |
| 2026-05-04 16:55 | 50.90076 | 4.49706 | 132 ft | 95 kts | 14° |
| 2026-05-04 16:55 | 50.90712 | 4.49935 | 119 ft | 24 kts | 351° |
| 2026-05-04 16:56 | 50.90845 | 4.49773 | 122 ft | 6 kts | 245° |
| 2026-05-04 16:56 | 50.90788 | 4.49554 | 122 ft | 22 kts | 245° |
| 2026-05-04 16:57 | 50.90721 | 4.49324 | 122 ft | 24 kts | 245° |
| 2026-05-04 16:57 | 50.90575 | 4.49042 | 119 ft | 6 kts | 187° |
| 2026-05-04 16:58 | 50.90528 | 4.49029 | 121 ft | 0 kts | 190° |